Time;durP1;ratioP1;P1;durP2;ratioP2;P2;SDS_P1;SDS_P2;PMS_P1;PMS_P2;Temp;Humidity;BMP_temperature;BMP_pressure;BME280_temperature;BME280_humidity;BME280_pressure;Samples;Min_cycle;Max_cycle;Signal;HPM_P1;HPM_P2
2023/11/20 00:01:46;;;;;;;32.13;7.93;;;14.50;99.90;;;14.63;96.97;100644.63;5088560;28;20052;-78
2023/11/20 00:04:15;;;;;;;31.85;8.13;;;14.40;99.90;;;14.76;96.41;100648.72;5072913;28;20040;-78
2023/11/20 00:06:43;;;;;;;31.58;7.63;;;14.40;99.90;;;14.78;95.96;100645.13;5072995;28;20388;-79
2023/11/20 00:09:13;;;;;;;29.33;7.75;;;14.50;99.90;;;14.72;95.99;100652.38;5072907;28;20249;-78
2023/11/20 00:11:41;;;;;;;35.15;7.90;;;14.50;99.90;;;14.69;96.30;100645.34;5072586;28;20048;-79
2023/11/20 00:14:09;;;;;;;35.13;7.88;;;14.50;99.90;;;14.68;96.17;100640.94;5072551;28;20127;-79
2023/11/20 00:16:37;;;;;;;32.22;8.77;;;14.50;99.90;;;14.63;96.02;100632.19;5072400;28;20470;-79
2023/11/20 00:19:06;;;;;;;31.38;7.78;;;14.40;99.90;;;14.64;95.88;100643.72;5072431;28;20122;-78
2023/11/20 00:21:35;;;;;;;30.25;7.57;;;14.40;99.90;;;14.68;95.65;100648.03;5072868;28;20121;-79
2023/11/20 00:24:03;;;;;;;31.08;7.60;;;14.40;99.90;;;14.67;95.47;100636.53;5072264;28;20094;-79
2023/11/20 00:26:33;;;;;;;31.10;8.35;;;14.40;99.90;;;14.75;95.14;100639.00;5072605;28;20090;-78
2023/11/20 00:29:05;;;;;;;27.52;7.20;;;14.40;99.90;;;14.76;95.11;100648.72;5071349;28;20437;-78
2023/11/20 00:31:34;;;;;;;25.98;7.30;;;14.50;99.90;;;14.78;95.04;100649.56;5072561;28;20094;-79
2023/11/20 00:34:03;;;;;;;26.25;7.25;;;14.50;99.90;;;14.72;94.76;100649.72;5071254;28;20507;-78
2023/11/20 00:36:31;;;;;;;30.13;7.80;;;14.50;99.90;;;14.79;95.12;100652.19;5072420;28;20041;-79
2023/11/20 00:39:00;;;;;;;34.25;7.82;;;14.50;99.90;;;14.69;95.08;100647.16;5072766;28;20051;-79
2023/11/20 00:41:31;;;;;;;32.47;7.30;;;14.50;99.90;;;14.70;95.31;100646.22;5087985;28;20049;-79
2023/11/20 00:44:01;;;;;;;32.60;8.00;;;14.50;99.90;;;14.73;94.79;100655.00;5072522;28;20036;-79
2023/11/20 00:46:29;;;;;;;30.40;8.27;;;14.50;99.90;;;14.81;94.59;100647.69;5072386;28;20098;-78
2023/11/20 00:48:57;;;;;;;32.95;7.70;;;14.50;99.90;;;14.73;94.54;100649.66;5088195;28;20059;-79
2023/11/20 00:51:26;;;;;;;36.67;7.55;;;14.50;99.90;;;14.60;94.86;100640.25;5071283;28;20055;-78
2023/11/20 00:53:54;;;;;;;27.58;7.40;;;14.40;99.90;;;14.58;94.64;100647.41;5087876;28;20052;-78
2023/11/20 00:56:23;;;;;;;28.63;7.70;;;14.30;99.90;;;14.54;94.50;100643.06;5072227;28;20068;-78
2023/11/20 00:58:52;;;;;;;32.08;7.78;;;14.30;99.90;;;14.57;94.17;100642.13;5072267;28;20123;-79
2023/11/20 01:01:21;;;;;;;28.40;7.28;;;14.30;99.90;;;14.49;94.34;100631.66;5072511;28;20040;-78
2023/11/20 01:03:50;;;;;;;31.07;7.60;;;14.30;99.90;;;14.64;94.51;100651.69;5071022;28;20498;-78
2023/11/20 01:06:18;;;;;;;30.27;7.32;;;14.40;99.90;;;14.67;94.41;100648.97;5070742;28;20106;-79
2023/11/20 01:08:47;;;;;;;36.40;7.63;;;14.40;99.90;;;14.63;94.97;100661.50;5072205;28;20120;-78
2023/11/20 01:11:16;;;;;;;33.35;7.80;;;14.40;99.90;;;14.52;95.66;100667.97;5072310;28;20062;-78
2023/11/20 01:13:44;;;;;;;34.65;8.18;;;14.30;99.90;;;14.52;96.21;100671.50;5072434;28;20399;-78
2023/11/20 01:16:13;;;;;;;33.47;7.68;;;14.30;99.90;;;14.54;96.51;100672.34;5072274;28;20391;-78
2023/11/20 01:18:42;;;;;;;35.83;8.00;;;14.30;99.90;;;14.48;96.89;100667.16;5072115;28;20048;-78
2023/11/20 01:21:11;;;;;;;35.45;8.18;;;14.30;99.90;;;14.52;97.41;100670.66;5072078;28;20036;-78
2023/11/20 01:23:39;;;;;;;38.13;8.55;;;14.30;99.90;;;14.43;97.75;100674.38;5074452;28;20455;-78
2023/11/20 01:26:08;;;;;;;31.98;7.85;;;14.20;99.90;;;14.46;98.25;100676.97;5075607;28;20045;-79
2023/11/20 01:28:36;;;;;;;33.75;7.85;;;14.20;99.90;;;14.38;98.32;100681.59;5075490;28;20483;-78
2023/11/20 01:31:05;;;;;;;31.55;8.85;;;14.10;99.90;;;14.28;98.60;100670.31;5075480;28;20051;-79
2023/11/20 01:33:33;;;;;;;35.50;7.63;;;14.00;99.90;;;14.33;98.07;100683.47;5091075;28;20127;-78
2023/11/20 01:36:03;;;;;;;34.45;7.97;;;14.10;99.90;;;14.38;97.75;100677.13;5090954;28;20044;-79
2023/11/20 01:38:32;;;;;;;33.00;8.50;;;14.10;99.90;;;14.43;97.66;100688.56;5075459;28;20403;-78
2023/11/20 01:41:00;;;;;;;32.20;7.93;;;14.10;99.90;;;14.48;97.04;100681.34;5075313;28;20797;-78
2023/11/20 01:43:28;;;;;;;29.92;7.78;;;14.20;99.90;;;14.37;96.52;100678.06;5075008;28;20044;-79
2023/11/20 01:46:06;;;;;;;39.60;8.57;;;14.20;99.90;;;14.46;96.27;100695.59;5075542;28;20094;-78
2023/11/20 01:48:36;;;;;;;37.20;8.30;;;14.20;99.90;;;13.93;95.43;100582.41;5075167;28;20040;-79
2023/11/20 01:51:06;;;;;;;30.90;8.15;;;14.30;99.90;;;14.29;95.96;100690.66;5075160;28;20052;-79
2023/11/20 01:53:37;;;;;;;35.72;7.60;;;14.10;99.90;;;14.28;96.08;100688.03;5075220;28;20435;-79
2023/11/20 01:56:08;;;;;;;29.90;7.70;;;14.10;99.90;;;14.12;95.67;100662.66;5090605;28;20056;-78
2023/11/20 01:58:36;;;;;;;32.75;7.30;;;14.10;99.90;;;14.30;95.16;100692.41;5090575;28;20045;-79
2023/11/20 02:01:05;;;;;;;28.60;7.22;;;14.10;99.90;;;14.39;95.58;100692.22;5075006;28;20466;-79
2023/11/20 02:03:34;;;;;;;28.77;7.70;;;14.10;99.90;;;14.33;95.83;100684.38;5074925;28;20052;-78
2023/11/20 02:06:03;;;;;;;35.65;8.20;;;14.10;99.90;;;14.36;95.83;100688.75;5074596;28;20072;-78
2023/11/20 02:08:32;;;;;;;32.58;7.93;;;14.10;99.90;;;14.42;95.75;100693.91;5074561;28;20093;-79
2023/11/20 02:11:01;;;;;;;33.80;7.65;;;14.20;99.90;;;14.58;95.24;100690.00;5074467;28;20072;-79
2023/11/20 02:13:31;;;;;;;31.60;7.47;;;14.30;99.90;;;14.52;95.19;100684.81;5073425;28;20139;-79
2023/11/20 02:15:59;;;;;;;35.08;7.53;;;14.30;99.90;;;14.49;95.17;100695.53;5090237;28;20048;-79
2023/11/20 02:18:29;;;;;;;30.70;7.30;;;14.30;99.90;;;14.45;95.28;100694.72;5074833;28;20047;-78
2023/11/20 02:20:58;;;;;;;34.22;8.60;;;14.20;99.90;;;14.39;95.01;100684.22;5073275;28;20107;-79
2023/11/20 02:23:27;;;;;;;34.00;7.57;;;14.20;99.90;;;14.31;94.70;100683.53;5074499;28;20040;-79
2023/11/20 02:26:25;;;;;;;32.80;7.82;;;14.10;99.90;;;14.31;94.79;100674.66;5074237;28;20499;-79
2023/11/20 02:29:05;;;;;;;29.55;7.70;;;14.10;99.90;;;14.42;94.61;100688.56;5071340;28;20412;-77
2023/11/20 02:31:35;;;;;;;38.97;8.38;;;14.20;99.90;;;14.38;94.91;100685.13;5074461;28;20064;-78
2023/11/20 02:34:04;;;;;;;32.55;7.15;;;14.10;99.90;;;14.48;95.51;100686.66;5074355;28;20087;-79
2023/11/20 02:36:32;;;;;;;25.10;7.22;;;14.20;99.90;;;14.34;95.38;100670.13;5072880;28;20545;-79
2023/11/20 02:39:01;;;;;;;40.50;7.65;;;14.20;99.90;;;14.25;95.42;100677.41;5074277;28;20048;-79
2023/11/20 02:41:29;;;;;;;33.88;8.32;;;14.10;99.90;;;14.28;95.44;100688.94;5074132;28;20067;-78
2023/11/20 02:43:58;;;;;;;27.58;7.57;;;14.00;99.90;;;14.22;95.25;100681.03;5074052;28;20074;-78
2023/11/20 02:46:27;;;;;;;33.38;7.63;;;14.00;99.90;;;14.23;94.84;100679.22;5072765;28;20106;-79
2023/11/20 02:48:56;;;;;;;32.20;7.05;;;14.00;99.90;;;14.32;94.90;100677.28;5074049;28;20090;-78
2023/11/20 02:51:27;;;;;;;33.75;7.15;;;14.10;99.90;;;14.32;94.39;100684.41;5073997;28;20134;-79
2023/11/20 02:53:55;;;;;;;31.88;7.55;;;14.10;99.90;;;14.29;94.28;100690.66;5072714;28;20056;-77
2023/11/20 02:56:24;;;;;;;33.80;7.57;;;14.00;99.90;;;14.35;93.78;100687.88;5073604;28;20469;-78
2023/11/20 02:58:53;;;;;;;38.05;8.68;;;14.10;99.90;;;14.37;93.36;100691.38;5073820;28;20044;-78
2023/11/20 03:01:22;;;;;;;30.75;7.20;;;14.20;99.90;;;14.38;93.17;100681.59;5073805;28;20419;-78
2023/11/20 03:03:53;;;;;;;28.20;7.60;;;14.20;99.90;;;14.44;93.24;100695.63;5073489;28;20115;-79
2023/11/20 03:06:23;;;;;;;27.80;7.18;;;14.20;99.90;;;14.38;92.88;100694.91;5089384;28;20135;-78
2023/11/20 03:08:52;;;;;;;38.13;8.65;;;14.20;99.90;;;14.41;92.93;100692.16;5072461;28;20080;-77
2023/11/20 03:11:20;;;;;;;40.35;7.95;;;14.20;99.90;;;14.28;92.81;100683.59;5073238;28;20131;-79
2023/11/20 03:13:49;;;;;;;31.90;7.18;;;14.10;99.90;;;14.39;92.98;100691.31;5072329;28;20466;-79
2023/11/20 03:16:17;;;;;;;31.58;7.75;;;14.10;99.90;;;14.35;93.02;100687.88;5089012;28;20052;-78
2023/11/20 03:18:46;;;;;;;32.90;7.30;;;14.10;99.90;;;14.44;92.53;100692.09;5072247;28;20110;-79
2023/11/20 03:21:14;;;;;;;31.13;7.72;;;14.20;99.90;;;14.43;92.38;100690.34;5073415;28;20124;-79
2023/11/20 03:23:44;;;;;;;34.00;7.82;;;14.20;99.90;;;14.38;92.21;100693.09;5073179;28;20049;-79
2023/11/20 03:26:13;;;;;;;29.73;7.13;;;14.20;99.90;;;14.43;92.24;100693.00;5088947;28;20055;-79
2023/11/20 03:28:41;;;;;;;31.27;7.47;;;14.20;99.90;;;14.48;91.91;100688.44;5072047;28;20110;-79
2023/11/20 03:31:10;;;;;;;34.22;7.65;;;14.20;99.90;;;14.36;91.95;100684.28;5071958;28;20135;-79
2023/11/20 03:33:39;;;;;;;28.90;7.25;;;14.20;99.90;;;14.53;91.59;100697.22;5073244;28;20067;-78
2023/11/20 03:36:08;;;;;;;30.20;8.18;;;14.30;99.90;;;14.37;91.35;100677.19;5088781;28;20090;-79
2023/11/20 03:38:37;;;;;;;30.42;7.57;;;14.20;99.90;;;14.42;91.39;100693.91;5071576;28;20048;-80
2023/11/20 03:41:07;;;;;;;32.67;8.73;;;14.20;99.90;;;14.44;91.05;100698.28;5073219;28;20455;-79
2023/11/20 03:43:35;;;;;;;30.73;7.97;;;14.20;99.90;;;14.41;91.15;100690.38;5073257;28;20388;-79
2023/11/20 03:46:04;;;;;;;27.25;6.85;;;14.20;99.90;;;14.41;90.74;100695.72;5072636;28;20068;-79
2023/11/20 03:48:32;;;;;;;27.30;7.85;;;14.20;99.90;;;14.55;90.55;100697.19;5089003;28;20403;-79
2023/11/20 03:51:04;;;;;;;28.23;7.90;;;14.30;99.90;;;14.52;90.08;100695.44;5088963;28;20049;-79
2023/11/20 03:53:32;;;;;;;31.40;6.97;;;14.30;99.90;;;14.44;90.26;100686.75;5073018;28;20533;-79
2023/11/20 03:56:01;;;;;;;33.10;8.18;;;14.20;99.90;;;14.59;89.98;100694.41;5074199;28;20076;-78
2023/11/20 03:58:30;;;;;;;29.08;7.47;;;14.30;99.90;;;14.59;90.03;100701.50;5074119;28;20044;-79
2023/11/20 04:00:59;;;;;;;36.53;7.88;;;14.30;99.90;;;14.50;89.49;100691.09;5074554;28;20044;-79
2023/11/20 04:03:27;;;;;;;28.45;7.55;;;14.30;99.90;;;14.53;90.08;100696.34;5074603;28;20118;-79
2023/11/20 04:05:56;;;;;;;28.13;7.65;;;14.30;99.90;;;14.60;90.20;100698.81;5073711;28;20102;-78
2023/11/20 04:08:24;;;;;;;29.25;7.63;;;14.30;99.90;;;14.51;89.89;100687.50;5073052;28;20041;-79
2023/11/20 04:10:53;;;;;;;32.95;8.32;;;14.30;99.90;;;14.39;90.64;100684.22;5072676;28;20623;-79
2023/11/20 04:13:21;;;;;;;31.52;7.68;;;14.20;99.90;;;14.42;90.52;100688.56;5072847;28;20119;-79
2023/11/20 04:15:51;;;;;;;31.52;7.70;;;14.20;99.90;;;14.29;90.80;100689.78;5072484;28;20052;-79
2023/11/20 04:18:20;;;;;;;31.20;7.93;;;14.10;99.90;;;14.41;90.82;100693.06;5088223;28;20052;-79
2023/11/20 04:20:49;;;;;;;31.67;7.45;;;14.20;99.90;;;14.42;90.50;100699.22;5072481;28;20041;-79
2023/11/20 04:23:18;;;;;;;29.90;7.10;;;14.20;99.90;;;14.36;90.10;100694.06;5072357;28;20499;-79
2023/11/20 04:25:46;;;;;;;29.25;7.30;;;14.10;99.90;;;14.41;89.98;100701.03;5072653;28;20048;-79
2023/11/20 04:28:15;;;;;;;30.05;7.85;;;14.20;99.90;;;14.36;90.25;100686.94;5072337;28;20040;-79
2023/11/20 04:30:43;;;;;;;36.75;8.27;;;14.10;99.90;;;14.29;89.57;100695.97;5071236;28;20403;-79
2023/11/20 04:33:13;;;;;;;26.83;7.10;;;14.10;99.90;;;14.32;90.12;100689.72;5072621;28;20068;-79
2023/11/20 04:35:42;;;;;;;32.45;7.57;;;14.10;99.90;;;14.29;90.18;100689.78;5072272;28;20041;-79
2023/11/20 04:38:10;;;;;;;29.75;7.43;;;14.00;99.90;;;14.28;90.08;100691.59;5072792;28;20044;-79
2023/11/20 04:40:38;;;;;;;28.50;6.63;;;14.00;99.90;;;14.33;89.65;100702.09;5072431;28;20056;-79
2023/11/20 04:43:07;;;;;;;27.65;7.32;;;14.10;99.90;;;14.33;89.43;100694.13;5072536;28;20056;-79
2023/11/20 04:45:35;;;;;;;33.38;7.93;;;14.10;99.90;;;14.29;89.50;100687.13;5072172;28;20044;-79
2023/11/20 04:48:04;;;;;;;30.42;7.15;;;14.00;99.90;;;14.29;89.70;100684.47;5072849;28;20052;-79
2023/11/20 04:50:34;;;;;;;29.50;7.60;;;14.10;99.90;;;14.32;89.99;100695.06;5072163;28;20480;-79
2023/11/20 04:53:02;;;;;;;26.35;7.18;;;14.00;99.90;;;14.34;89.63;100685.25;5072159;28;20495;-79
2023/11/20 04:55:31;;;;;;;32.80;7.88;;;14.10;99.90;;;14.25;89.49;100682.75;5072319;28;20045;-79
2023/11/20 04:57:59;;;;;;;26.02;7.35;;;14.00;99.90;;;14.17;89.51;100682.91;5073390;28;20375;-79
2023/11/20 05:00:28;;;;;;;31.13;7.43;;;14.00;99.90;;;14.25;89.67;100688.06;5075776;28;20044;-79
2023/11/20 05:02:56;;;;;;;27.48;7.03;;;14.00;99.90;;;14.32;89.64;100692.38;5075767;28;20045;-79
2023/11/20 05:05:25;;;;;;;30.73;7.50;;;14.10;99.90;;;14.21;89.51;100654.44;5075930;28;20047;-79
2023/11/20 05:07:55;;;;;;;26.65;7.78;;;14.20;99.90;;;14.51;89.68;100693.72;5075674;28;20115;-79
2023/11/20 05:10:23;;;;;;;21.98;6.88;;;14.30;99.90;;;14.45;89.27;100688.53;5075844;28;20048;-79
2023/11/20 05:12:53;;;;;;;24.52;6.93;;;14.30;99.90;;;14.47;88.84;100686.72;5091181;28;20086;-79
2023/11/20 05:15:21;;;;;;;27.98;7.22;;;14.20;99.90;;;14.33;87.81;100688.81;5076085;28;20052;-77
2023/11/20 05:17:49;;;;;;;32.58;8.00;;;14.10;99.90;;;14.31;87.01;100685.28;5075595;28;20040;-79
2023/11/20 05:20:18;;;;;;;29.05;7.20;;;14.10;99.90;;;14.20;86.96;100689.97;5075595;28;20135;-79
2023/11/20 05:22:46;;;;;;;34.50;7.03;;;14.00;99.90;;;14.13;87.03;100683.03;5075618;28;20476;-79
2023/11/20 05:25:16;;;;;;;34.70;7.53;;;14.00;99.90;;;14.20;87.14;100687.28;5075274;28;20553;-79
2023/11/20 05:27:44;;;;;;;30.57;8.40;;;14.00;99.90;;;14.23;87.06;100692.53;5075346;28;20090;-79
2023/11/20 05:30:14;;;;;;;31.50;7.85;;;14.00;99.90;;;14.16;87.34;100686.50;5074232;28;20044;-79
2023/11/20 05:32:42;;;;;;;31.92;8.38;;;14.00;99.90;;;14.11;87.57;100693.69;5076031;28;20094;-79
2023/11/20 05:35:11;;;;;;;35.20;8.60;;;13.90;99.90;;;13.97;87.95;100695.78;5075244;28;20041;-79
2023/11/20 05:37:40;;;;;;;26.38;7.60;;;13.80;99.90;;;14.08;88.22;100695.53;5090970;28;20132;-79
2023/11/20 05:40:10;;;;;;;34.25;7.80;;;13.90;99.90;;;14.18;87.55;100699.75;5073719;28;20482;-80
2023/11/20 05:42:41;;;;;;;31.42;7.63;;;13.90;99.90;;;14.20;87.72;100695.28;5075130;28;20040;-79
2023/11/20 05:45:10;;;;;;;32.88;8.00;;;14.00;99.90;;;14.26;87.67;100698.69;5075666;28;20396;-79
2023/11/20 05:47:39;;;;;;;40.35;8.88;;;14.00;99.90;;;14.11;87.96;100700.81;5075230;28;20051;-80
2023/11/20 05:50:08;;;;;;;35.67;9.05;;;13.90;99.90;;;14.19;88.48;100701.50;5074983;28;20044;-80
2023/11/20 05:52:37;;;;;;;39.40;8.50;;;13.90;99.90;;;14.19;88.42;100696.16;5090764;28;20048;-79
2023/11/20 05:55:07;;;;;;;34.22;8.70;;;13.90;99.90;;;14.24;88.13;100699.63;5075106;28;20040;-79
2023/11/20 05:57:36;;;;;;;33.92;8.60;;;14.00;99.90;;;14.24;88.09;100705.84;5075224;28;20044;-79
2023/11/20 06:00:10;;;;;;;35.13;8.85;;;14.00;99.90;;;14.26;88.02;100697.81;5074800;28;20381;-79
2023/11/20 06:02:39;;;;;;;36.00;8.95;;;13.90;99.90;;;14.27;88.44;100702.19;5075258;28;20060;-80
2023/11/20 06:05:08;;;;;;;46.75;8.95;;;14.00;99.90;;;14.22;88.97;100706.75;5074942;28;20475;-80
2023/11/20 06:07:37;;;;;;;34.97;8.20;;;14.00;99.90;;;14.19;90.04;100705.03;5074735;28;20086;-79
2023/11/20 06:10:07;;;;;;;44.05;9.38;;;13.90;99.90;;;14.05;90.76;100704.44;5074228;28;20052;-77
2023/11/20 06:12:36;;;;;;;39.97;8.88;;;13.80;99.90;;;14.09;91.04;100710.59;5074798;28;20052;-79
2023/11/20 06:15:08;;;;;;;27.00;7.22;;;13.80;99.90;;;13.86;90.47;100713.72;5074508;28;20045;-80
2023/11/20 06:17:38;;;;;;;26.17;6.60;;;13.70;99.90;;;13.95;90.63;100707.34;5074488;28;20453;-79
2023/11/20 06:20:09;;;;;;;28.23;7.47;;;13.60;99.90;;;13.99;90.44;100698.41;5090163;28;20065;-80
2023/11/20 06:22:41;;;;;;;35.05;7.43;;;13.70;99.90;;;13.83;90.44;100699.63;5074379;28;20040;-79
2023/11/20 06:25:12;;;;;;;31.48;8.15;;;13.60;99.90;;;13.77;90.75;100703.28;5074245;28;20040;-79
2023/11/20 06:27:40;;;;;;;34.10;7.95;;;13.50;99.90;;;13.81;90.59;100709.41;5074282;28;20098;-79
2023/11/20 06:30:11;;;;;;;37.10;8.18;;;13.50;99.90;;;13.77;90.41;100707.72;5074417;28;20054;-79
2023/11/20 06:32:40;;;;;;;36.88;8.05;;;13.50;99.90;;;13.77;90.46;100708.59;5074325;28;20087;-79
2023/11/20 06:35:10;;;;;;;31.77;8.00;;;13.50;99.90;;;13.82;90.51;100721.81;5076018;28;20115;-79
2023/11/20 06:37:39;;;;;;;33.88;7.65;;;13.50;99.90;;;13.84;90.71;100720.00;5074389;28;20044;-80
2023/11/20 06:40:10;;;;;;;32.50;7.80;;;13.50;99.90;;;13.80;90.75;100707.66;5072887;28;20102;-79
2023/11/20 06:42:39;;;;;;;41.60;8.70;;;13.50;99.90;;;13.74;90.57;100697.16;5089810;28;20037;-79
2023/11/20 06:45:11;;;;;;;44.40;9.00;;;13.50;99.90;;;13.76;91.19;100705.97;5073936;28;20474;-80
2023/11/20 06:47:39;;;;;;;41.00;8.70;;;13.40;99.90;;;13.89;90.88;100712.78;5073872;28;20047;-79
2023/11/20 06:50:09;;;;;;;38.70;9.65;;;13.50;99.90;;;13.95;90.49;100713.56;5073748;28;20053;-79
2023/11/20 06:52:38;;;;;;;30.42;7.65;;;13.60;99.90;;;13.90;90.73;100728.69;5073709;28;20097;-79
2023/11/20 06:55:07;;;;;;;38.28;8.45;;;13.60;99.90;;;13.87;91.02;100723.47;5073772;28;20037;-79
2023/11/20 06:57:36;;;;;;;35.15;8.50;;;13.60;99.90;;;13.85;90.85;100714.63;5073747;28;20078;-79
2023/11/20 07:00:11;;;;;;;38.70;7.75;;;13.60;99.90;;;13.92;90.77;100733.97;5073397;28;20033;-80
2023/11/20 07:02:42;;;;;;;37.13;8.68;;;13.60;99.90;;;13.90;90.63;100731.34;5073485;28;20045;-80
2023/11/20 07:05:16;;;;;;;33.35;8.25;;;13.60;99.90;;;13.93;90.84;100738.41;5073851;28;20120;-78
2023/11/20 07:07:52;;;;;;;33.47;8.05;;;13.60;99.90;;;13.22;91.07;100613.13;5073458;28;20502;-79
2023/11/20 07:10:23;;;;;;;42.33;8.85;;;13.60;99.90;;;13.80;91.00;100724.47;5073524;28;20109;-79
2023/11/20 07:12:53;;;;;;;38.38;8.82;;;13.60;99.90;;;13.76;91.03;100738.75;5073307;28;20042;-80
2023/11/20 07:15:22;;;;;;;35.65;8.20;;;13.50;99.90;;;13.81;91.18;100736.00;5073626;28;20422;-80
2023/11/20 07:17:52;;;;;;;38.03;7.93;;;13.50;99.90;;;13.72;90.53;100747.69;5073245;28;20090;-80
2023/11/20 07:20:21;;;;;;;31.30;6.82;;;13.40;99.90;;;13.79;89.97;100741.34;5088156;28;20514;-79
2023/11/20 07:22:50;;;;;;;30.20;6.80;;;13.50;99.90;;;13.83;89.38;100736.84;5073155;28;20052;-79
2023/11/20 07:25:18;;;;;;;35.92;8.13;;;13.50;99.90;;;13.84;89.00;100743.91;5072058;28;20403;-80
2023/11/20 07:27:47;;;;;;;28.80;7.35;;;13.50;99.90;;;13.80;88.59;100737.75;5073760;28;20096;-80
2023/11/20 07:30:15;;;;;;;33.20;8.85;;;13.50;99.90;;;13.82;88.35;100741.28;5073189;28;20070;-78
2023/11/20 07:32:46;;;;;;;30.75;6.93;;;13.50;99.90;;;13.77;88.01;100744.94;5072157;28;20453;-81
2023/11/20 07:35:16;;;;;;;27.77;7.63;;;13.50;99.90;;;13.88;88.27;100748.28;5071864;28;20045;-70
2023/11/20 07:37:45;;;;;;;29.75;8.07;;;13.50;99.90;;;13.84;88.02;100747.44;5072791;28;20040;-72
2023/11/20 07:40:15;;;;;;;32.67;8.05;;;13.50;99.90;;;13.90;88.44;100757.09;5072911;28;20123;-72
2023/11/20 07:42:44;;;;;;;36.08;8.07;;;13.60;99.90;;;13.88;88.54;100746.47;5072712;28;20048;-71
2023/11/20 07:45:13;;;;;;;34.53;7.97;;;13.60;99.90;;;13.85;88.95;100754.53;5071688;28;20048;-72
2023/11/20 07:47:42;;;;;;;31.02;7.57;;;13.60;99.90;;;13.82;89.74;100748.41;5088347;28;20080;-72
2023/11/20 07:50:12;;;;;;;34.80;7.70;;;13.60;99.90;;;13.90;89.72;100755.28;5072694;28;20044;-71
2023/11/20 07:52:43;;;;;;;38.83;8.77;;;13.60;99.90;;;13.82;90.32;100727.13;5073006;28;20066;-72
2023/11/20 07:55:12;;;;;;;29.67;8.13;;;13.60;99.90;;;13.89;90.83;100731.41;5072671;28;20040;-70
2023/11/20 07:57:41;;;;;;;27.17;7.75;;;13.70;99.90;;;14.06;90.93;100751.44;5072770;28;20044;-74
2023/11/20 08:00:12;;;;;;;31.55;7.30;;;13.70;99.90;;;13.99;90.79;100755.13;5072431;28;20259;-70
2023/11/20 08:02:40;;;;;;;33.30;7.38;;;13.70;99.90;;;14.07;90.40;100757.63;5088612;28;20551;-71
2023/11/20 08:05:10;;;;;;;32.55;8.18;;;13.80;99.90;;;14.12;89.47;100753.09;5072406;28;20037;-71
2023/11/20 08:07:39;;;;;;;30.48;7.25;;;13.80;99.90;;;14.11;88.65;100751.34;5073035;28;20372;-72
2023/11/20 08:10:10;;;;;;;30.95;8.05;;;13.80;99.90;;;14.26;89.23;100756.34;5072765;28;20049;-71
2023/11/20 08:12:39;;;;;;;34.83;8.02;;;13.90;99.90;;;14.32;89.66;100753.59;5072547;28;20044;-79
2023/11/20 08:15:11;;;;;;;35.15;8.35;;;14.00;99.90;;;14.29;90.10;100761.63;5072395;28;20049;-76
2023/11/20 08:17:41;;;;;;;36.47;8.07;;;14.00;99.90;;;14.26;90.42;100753.69;5072535;28;20121;-80
2023/11/20 08:20:11;;;;;;;30.83;7.57;;;14.00;99.90;;;14.31;91.05;100755.34;5072268;28;20037;-75
2023/11/20 08:22:40;;;;;;;38.78;8.43;;;14.00;99.90;;;14.32;91.30;100761.56;5072390;28;20055;-67
2023/11/20 08:25:11;;;;;;;34.85;8.45;;;14.00;99.90;;;14.25;91.24;100746.59;5072352;28;20059;-69
2023/11/20 08:27:41;;;;;;;31.60;7.53;;;14.00;99.90;;;14.13;91.34;100749.53;5072393;28;20068;-68
2023/11/20 08:30:12;;;;;;;28.85;7.57;;;13.90;99.90;;;14.20;91.42;100746.72;5072278;28;20127;-75
2023/11/20 08:32:43;;;;;;;35.88;8.00;;;13.90;99.90;;;14.30;91.03;100750.06;5075064;28;20098;-73
2023/11/20 08:35:12;;;;;;;37.15;7.97;;;13.90;99.90;;;14.27;90.83;100752.75;5076249;28;20044;-72
2023/11/20 08:37:40;;;;;;;24.88;7.97;;;14.00;99.90;;;14.39;91.12;100755.19;5075462;28;20506;-73
2023/11/20 08:40:14;;;;;;;34.92;8.18;;;14.10;99.90;;;14.71;91.53;100750.00;5076069;28;20098;-71
2023/11/20 08:42:43;;;;;;;31.98;8.40;;;14.30;99.90;;;14.95;90.16;100764.53;5076236;28;20049;-70
2023/11/20 08:45:11;;;;;;;28.98;7.53;;;14.60;99.90;;;14.95;89.17;100754.78;5076133;28;20461;-72
2023/11/20 08:47:40;;;;;;;30.20;7.35;;;14.60;99.90;;;14.88;89.19;100755.84;5076148;28;20052;-72
2023/11/20 08:50:11;;;;;;;30.42;7.55;;;14.60;99.90;;;14.83;89.90;100755.06;5076355;28;20047;-73
2023/11/20 08:52:40;;;;;;;29.73;7.30;;;14.60;99.90;;;14.94;90.99;100753.00;5076893;28;20045;-74
2023/11/20 08:55:10;;;;;;;29.83;8.65;;;14.60;99.90;;;15.04;90.44;100759.88;5075944;28;20050;-73
2023/11/20 08:57:39;;;;;;;32.60;8.23;;;14.70;99.90;;;14.90;89.79;100751.34;5075955;28;20045;-72
2023/11/20 09:00:14;;;;;;;28.55;8.07;;;14.70;99.90;;;14.91;89.88;100762.88;5075732;28;20041;-73
2023/11/20 09:02:44;;;;;;;26.75;7.78;;;14.60;99.90;;;14.80;90.18;100765.78;5075820;28;20041;-73
2023/11/20 09:05:13;;;;;;;40.38;8.55;;;14.60;99.90;;;14.68;90.12;100760.75;5075722;28;20483;-73
2023/11/20 09:07:41;;;;;;;28.27;7.45;;;14.40;99.90;;;14.44;90.17;100756.84;5075636;28;20410;-73
2023/11/20 09:10:12;;;;;;;29.60;7.93;;;14.20;99.90;;;14.28;91.20;100760.75;5075584;28;20045;-73
2023/11/20 09:12:41;;;;;;;31.33;7.75;;;14.00;99.90;;;14.21;92.25;100767.06;5076186;28;20053;-73
2023/11/20 09:15:11;;;;;;;28.58;7.68;;;13.90;99.90;;;14.09;93.63;100766.47;5075563;28;20045;-74
2023/11/20 09:17:42;;;;;;;35.63;8.45;;;13.80;99.90;;;14.05;93.95;100751.47;5075493;28;20434;-74
2023/11/20 09:20:12;;;;;;;40.75;8.25;;;13.70;99.90;;;14.04;94.12;100757.69;5075748;28;20040;-74
2023/11/20 09:22:41;;;;;;;31.42;7.78;;;13.70;99.90;;;14.05;94.46;100752.31;5075773;28;20441;-74
2023/11/20 09:25:11;;;;;;;30.85;8.43;;;13.70;99.90;;;13.92;95.22;100740.19;5075344;28;20045;-73
2023/11/20 09:27:40;;;;;;;29.17;7.75;;;13.60;99.90;;;13.68;96.39;100734.47;5075360;28;20089;-74
2023/11/20 09:30:12;;;;;;;29.58;8.60;;;13.40;99.90;;;13.97;96.62;100750.75;5075505;28;20056;-76
2023/11/20 09:32:40;;;;;;;34.97;8.45;;;13.60;99.90;;;13.93;97.28;100757.03;5075166;28;20044;-75
2023/11/20 09:35:10;;;;;;;29.88;8.02;;;13.70;99.90;;;13.98;97.61;100747.16;5075205;28;20574;-78
2023/11/20 09:37:39;;;;;;;27.60;7.60;;;13.60;99.90;;;13.83;98.37;100736.84;5075500;28;20040;-73
2023/11/20 09:40:11;;;;;;;33.80;8.45;;;13.50;99.90;;;14.48;99.88;100733.69;5075284;28;20110;-73
2023/11/20 09:42:43;;;;;;;26.95;7.22;;;14.00;99.90;;;15.21;100.00;100735.50;5074946;28;20064;-67
2023/11/20 09:45:27;;;;;;;34.70;8.30;;;14.80;99.90;;;15.66;97.70;100734.28;5074595;28;20048;-69
2023/11/20 09:47:56;;;;;;;28.67;7.75;;;15.30;99.90;;;15.66;92.62;100733.44;5074923;28;20048;-70
2023/11/20 09:50:28;;;;;;;30.08;7.78;;;15.50;99.90;;;15.81;90.38;100730.34;5075223;28;20044;-69
2023/11/20 09:52:58;;;;;;;34.03;7.65;;;15.60;99.90;;;16.24;89.76;100746.84;5075099;28;20064;-69
2023/11/20 09:55:28;;;;;;;34.33;8.30;;;16.00;99.90;;;16.48;87.89;100751.50;5075021;28;20123;-69
2023/11/20 09:57:57;;;;;;;29.83;7.45;;;16.20;99.90;;;16.60;85.40;100743.13;5074764;28;20078;-69
2023/11/20 10:00:25;;;;;;;28.92;6.78;;;16.40;99.90;;;16.40;83.93;100745.47;5075211;28;20776;-69
2023/11/20 10:02:55;;;;;;;30.30;8.20;;;16.20;99.90;;;16.32;83.39;100746.66;5074743;28;20433;-67
2023/11/20 10:05:29;;;;;;;28.77;7.75;;;16.10;99.90;;;16.22;82.97;100741.56;5074577;28;20106;-67
2023/11/20 10:08:03;;;;;;;29.10;8.32;;;15.90;99.90;;;15.81;82.68;100706.34;5074718;28;20488;-69
2023/11/20 10:10:34;;;;;;;23.10;7.33;;;15.70;99.90;;;15.95;83.28;100730.84;5090236;28;20071;-69
2023/11/20 10:13:07;;;;;;;27.98;7.35;;;15.70;99.90;;;16.01;84.06;100734.19;5074476;28;20080;-69
2023/11/20 10:15:38;;;;;;;36.60;7.93;;;15.70;99.90;;;16.27;83.44;100744.09;5074438;28;20454;-70